sensor_id;sensor_type;location;lat;lon;timestamp;pressure;altitude;pressure_sealevel;temperature;humidity
54308;BME280;40208;39.778;2.710;2024-03-02T00:02:10;100756.44;;;5.70;100.00
54308;BME280;40208;39.778;2.710;2024-03-02T00:04:55;100967.78;;;6.53;100.00
54308;BME280;40208;39.778;2.710;2024-03-02T00:07:44;100965.81;;;6.62;100.00
54308;BME280;40208;39.778;2.710;2024-03-02T00:10:39;101020.66;;;7.16;100.00
54308;BME280;40208;39.778;2.710;2024-03-02T00:13:24;101031.41;;;7.10;100.00
54308;BME280;40208;39.778;2.710;2024-03-02T00:16:10;100790.50;;;5.77;100.00
54308;BME280;40208;39.778;2.710;2024-03-02T00:18:55;100823.63;;;5.85;100.00
54308;BME280;40208;39.778;2.710;2024-03-02T00:21:41;100992.91;;;7.34;100.00
54308;BME280;40208;39.778;2.710;2024-03-02T00:24:34;100920.03;;;6.64;100.00
54308;BME280;40208;39.778;2.710;2024-03-02T00:27:19;100914.44;;;6.76;100.00
54308;BME280;40208;39.778;2.710;2024-03-02T00:33:30;101001.38;;;7.45;100.00
54308;BME280;40208;39.778;2.710;2024-03-02T00:36:16;101024.97;;;7.51;100.00
54308;BME280;40208;39.778;2.710;2024-03-02T00:39:01;100880.78;;;6.53;100.00
54308;BME280;40208;39.778;2.710;2024-03-02T00:41:47;100966.66;;;7.28;100.00
54308;BME280;40208;39.778;2.710;2024-03-02T00:44:33;101009.50;;;7.37;100.00
54308;BME280;40208;39.778;2.710;2024-03-02T00:47:20;101016.41;;;7.43;100.00
54308;BME280;40208;39.778;2.710;2024-03-02T00:50:05;101018.47;;;7.32;100.00
54308;BME280;40208;39.778;2.710;2024-03-02T00:52:51;100839.44;;;6.21;100.00
54308;BME280;40208;39.778;2.710;2024-03-02T00:55:36;101015.34;;;7.49;100.00
54308;BME280;40208;39.778;2.710;2024-03-02T00:58:22;100997.28;;;7.64;100.00
54308;BME280;40208;39.778;2.710;2024-03-02T01:01:07;100816.91;;;6.09;100.00
54308;BME280;40208;39.778;2.710;2024-03-02T01:03:52;100769.59;;;6.05;100.00
54308;BME280;40208;39.778;2.710;2024-03-02T01:06:37;101006.59;;;7.47;100.00
54308;BME280;40208;39.778;2.710;2024-03-02T01:09:21;100833.22;;;6.24;100.00
54308;BME280;40208;39.778;2.710;2024-03-02T01:12:07;100940.38;;;6.92;100.00
54308;BME280;40208;39.778;2.710;2024-03-02T01:14:52;100999.22;;;6.95;100.00
54308;BME280;40208;39.778;2.710;2024-03-02T01:17:36;100998.91;;;7.08;100.00
54308;BME280;40208;39.778;2.710;2024-03-02T01:20:21;100886.16;;;6.14;100.00
54308;BME280;40208;39.778;2.710;2024-03-02T01:23:07;100852.19;;;6.04;100.00
54308;BME280;40208;39.778;2.710;2024-03-02T01:25:52;100930.91;;;6.52;100.00
54308;BME280;40208;39.778;2.710;2024-03-02T01:28:36;100994.00;;;7.25;100.00
54308;BME280;40208;39.778;2.710;2024-03-02T01:31:21;100773.38;;;5.96;100.00
54308;BME280;40208;39.778;2.710;2024-03-02T01:34:06;100980.19;;;7.15;100.00
54308;BME280;40208;39.778;2.710;2024-03-02T01:36:51;100964.53;;;7.09;100.00
54308;BME280;40208;39.778;2.710;2024-03-02T01:39:36;100978.28;;;7.20;100.00
54308;BME280;40208;39.778;2.710;2024-03-02T01:42:21;100775.50;;;5.79;100.00
54308;BME280;40208;39.778;2.710;2024-03-02T01:45:07;100826.75;;;6.03;100.00
54308;BME280;40208;39.778;2.710;2024-03-02T01:47:52;100920.47;;;6.80;100.00
54308;BME280;40208;39.778;2.710;2024-03-02T01:50:37;100954.56;;;6.88;100.00
54308;BME280;40208;39.778;2.710;2024-03-02T01:53:22;100876.72;;;6.73;100.00
54308;BME280;40208;39.778;2.710;2024-03-02T01:56:07;100691.44;;;5.72;100.00
54308;BME280;40208;39.778;2.710;2024-03-02T01:58:51;100879.03;;;6.52;100.00
54308;BME280;40208;39.778;2.710;2024-03-02T02:01:36;100952.75;;;6.90;100.00
54308;BME280;40208;39.778;2.710;2024-03-02T02:04:21;100907.69;;;6.97;100.00
54308;BME280;40208;39.778;2.710;2024-03-02T02:07:11;100933.19;;;6.97;100.00
54308;BME280;40208;39.778;2.710;2024-03-02T02:09:56;100740.97;;;5.57;100.00
54308;BME280;40208;39.778;2.710;2024-03-02T02:12:41;100839.31;;;6.26;100.00
54308;BME280;40208;39.778;2.710;2024-03-02T02:15:27;100934.75;;;6.73;100.00
54308;BME280;40208;39.778;2.710;2024-03-02T02:18:12;100918.09;;;6.71;100.00
54308;BME280;40208;39.778;2.710;2024-03-02T02:20:57;100737.41;;;5.93;100.00
54308;BME280;40208;39.778;2.710;2024-03-02T02:23:42;100712.28;;;5.80;100.00
54308;BME280;40208;39.778;2.710;2024-03-02T02:26:31;100913.06;;;6.62;100.00
54308;BME280;40208;39.778;2.710;2024-03-02T02:29:16;100843.84;;;6.21;100.00
54308;BME280;40208;39.778;2.710;2024-03-02T02:32:01;100902.50;;;6.62;100.00
54308;BME280;40208;39.778;2.710;2024-03-02T02:34:45;100926.47;;;6.52;100.00
54308;BME280;40208;39.778;2.710;2024-03-02T02:37:30;100875.53;;;6.52;100.00
54308;BME280;40208;39.778;2.710;2024-03-02T02:40:16;100894.22;;;6.75;100.00
54308;BME280;40208;39.778;2.710;2024-03-02T02:43:01;100765.19;;;5.71;100.00
54308;BME280;40208;39.778;2.710;2024-03-02T02:45:46;100806.13;;;6.19;100.00
54308;BME280;40208;39.778;2.710;2024-03-02T02:48:31;100890.25;;;6.61;100.00
54308;BME280;40208;39.778;2.710;2024-03-02T02:51:16;100711.19;;;5.55;100.00
54308;BME280;40208;39.778;2.710;2024-03-02T02:54:01;100899.19;;;6.55;100.00
54308;BME280;40208;39.778;2.710;2024-03-02T02:56:46;100813.06;;;6.23;100.00
54308;BME280;40208;39.778;2.710;2024-03-02T02:59:31;100802.47;;;6.24;100.00
54308;BME280;40208;39.778;2.710;2024-03-02T03:02:16;100848.34;;;6.50;100.00
54308;BME280;40208;39.778;2.710;2024-03-02T03:05:01;100874.38;;;6.29;100.00
54308;BME280;40208;39.778;2.710;2024-03-02T03:07:45;100865.13;;;6.13;100.00
54308;BME280;40208;39.778;2.710;2024-03-02T03:10:33;100836.88;;;5.82;100.00
54308;BME280;40208;39.778;2.710;2024-03-02T03:13:17;100884.09;;;6.27;100.00
54308;BME280;40208;39.778;2.710;2024-03-02T03:16:03;100708.97;;;5.38;100.00
54308;BME280;40208;39.778;2.710;2024-03-02T03:18:48;100635.97;;;5.12;100.00
54308;BME280;40208;39.778;2.710;2024-03-02T03:21:35;100798.81;;;5.95;100.00
54308;BME280;40208;39.778;2.710;2024-03-02T03:24:20;100809.06;;;6.08;100.00
54308;BME280;40208;39.778;2.710;2024-03-02T03:27:05;100727.50;;;5.69;100.00
54308;BME280;40208;39.778;2.710;2024-03-02T03:29:50;100841.81;;;6.32;100.00
54308;BME280;40208;39.778;2.710;2024-03-02T03:32:35;100872.56;;;6.64;100.00
54308;BME280;40208;39.778;2.710;2024-03-02T03:35:20;100854.16;;;6.63;100.00
54308;BME280;40208;39.778;2.710;2024-03-02T03:38:05;100859.81;;;6.49;100.00
54308;BME280;40208;39.778;2.710;2024-03-02T03:40:49;100858.50;;;5.98;100.00
54308;BME280;40208;39.778;2.710;2024-03-02T03:43:35;100450.53;;;3.52;100.00
54308;BME280;40208;39.778;2.710;2024-03-02T03:46:20;100768.66;;;5.37;100.00
54308;BME280;40208;39.778;2.710;2024-03-02T03:49:05;100850.03;;;6.20;100.00
54308;BME280;40208;39.778;2.710;2024-03-02T03:51:50;100872.88;;;6.52;100.00
54308;BME280;40208;39.778;2.710;2024-03-02T03:54:35;100825.19;;;6.61;100.00
54308;BME280;40208;39.778;2.710;2024-03-02T03:57:21;100713.19;;;5.79;100.00
54308;BME280;40208;39.778;2.710;2024-03-02T04:00:07;100754.53;;;5.76;100.00
54308;BME280;40208;39.778;2.710;2024-03-02T04:02:54;100849.72;;;6.32;100.00
54308;BME280;40208;39.778;2.710;2024-03-02T04:05:39;100718.84;;;5.29;100.00
54308;BME280;40208;39.778;2.710;2024-03-02T04:08:24;100642.25;;;4.68;100.00
54308;BME280;40208;39.778;2.710;2024-03-02T04:11:09;100579.38;;;4.59;100.00
54308;BME280;40208;39.778;2.710;2024-03-02T04:13:54;100853.28;;;6.29;100.00
54308;BME280;40208;39.778;2.710;2024-03-02T04:16:38;100837.22;;;6.06;100.00
54308;BME280;40208;39.778;2.710;2024-03-02T04:19:23;100618.22;;;4.84;100.00
54308;BME280;40208;39.778;2.710;2024-03-02T04:22:08;100836.91;;;6.16;100.00
54308;BME280;40208;39.778;2.710;2024-03-02T04:24:53;100859.31;;;6.34;100.00
54308;BME280;40208;39.778;2.710;2024-03-02T04:27:38;100435.25;;;3.69;100.00
54308;BME280;40208;39.778;2.710;2024-03-02T04:30:22;100827.25;;;6.17;100.00
54308;BME280;40208;39.778;2.710;2024-03-02T04:33:07;100849.84;;;5.91;100.00
54308;BME280;40208;39.778;2.710;2024-03-02T04:35:54;100847.56;;;6.12;100.00
54308;BME280;40208;39.778;2.710;2024-03-02T04:38:39;100755.63;;;5.67;100.00
54308;BME280;40208;39.778;2.710;2024-03-02T04:41:24;100848.16;;;6.23;100.00
54308;BME280;40208;39.778;2.710;2024-03-02T04:44:09;100749.09;;;5.47;100.00
54308;BME280;40208;39.778;2.710;2024-03-02T04:46:55;100790.88;;;5.61;100.00
54308;BME280;40208;39.778;2.710;2024-03-02T04:49:40;100766.28;;;5.62;100.00
54308;BME280;40208;39.778;2.710;2024-03-02T04:52:24;100822.78;;;6.19;100.00
54308;BME280;40208;39.778;2.710;2024-03-02T04:55:09;100842.91;;;6.23;100.00
54308;BME280;40208;39.778;2.710;2024-03-02T04:58:01;100819.19;;;6.23;100.00
54308;BME280;40208;39.778;2.710;2024-03-02T05:00:45;100842.63;;;6.34;100.00
54308;BME280;40208;39.778;2.710;2024-03-02T05:03:33;100838.00;;;6.42;100.00
54308;BME280;40208;39.778;2.710;2024-03-02T05:06:19;100841.06;;;6.27;100.00
54308;BME280;40208;39.778;2.710;2024-03-02T05:09:04;100828.50;;;6.36;100.00
54308;BME280;40208;39.778;2.710;2024-03-02T05:11:48;100729.16;;;5.73;100.00
54308;BME280;40208;39.778;2.710;2024-03-02T05:14:47;100834.13;;;6.55;100.00
54308;BME280;40208;39.778;2.710;2024-03-02T05:17:32;100828.41;;;6.40;100.00
54308;BME280;40208;39.778;2.710;2024-03-02T05:20:17;100755.75;;;5.98;100.00
54308;BME280;40208;39.778;2.710;2024-03-02T05:23:02;100822.22;;;6.08;100.00
54308;BME280;40208;39.778;2.710;2024-03-02T05:25:47;100839.69;;;6.45;100.00
54308;BME280;40208;39.778;2.710;2024-03-02T05:28:32;100842.50;;;6.39;100.00
54308;BME280;40208;39.778;2.710;2024-03-02T05:31:16;100670.28;;;5.76;100.00
54308;BME280;40208;39.778;2.710;2024-03-02T05:34:01;100754.03;;;6.28;100.00
54308;BME280;40208;39.778;2.710;2024-03-02T05:36:47;100825.72;;;6.74;100.00
54308;BME280;40208;39.778;2.710;2024-03-02T05:39:31;100822.84;;;6.82;100.00
54308;BME280;40208;39.778;2.710;2024-03-02T05:42:16;100767.81;;;6.38;100.00
54308;BME280;40208;39.778;2.710;2024-03-02T05:45:01;100659.75;;;5.76;100.00
54308;BME280;40208;39.778;2.710;2024-03-02T05:47:46;100607.50;;;5.60;100.00
54308;BME280;40208;39.778;2.710;2024-03-02T05:50:31;100729.69;;;6.50;100.00
54308;BME280;40208;39.778;2.710;2024-03-02T05:53:16;100838.44;;;6.89;100.00
54308;BME280;40208;39.778;2.710;2024-03-02T05:56:01;100721.09;;;6.12;100.00
54308;BME280;40208;39.778;2.710;2024-03-02T05:58:45;100835.13;;;6.83;100.00
54308;BME280;40208;39.778;2.710;2024-03-02T06:01:57;100791.09;;;6.85;100.00
54308;BME280;40208;39.778;2.710;2024-03-02T06:04:42;100716.38;;;5.90;100.00
54308;BME280;40208;39.778;2.710;2024-03-02T06:07:27;100825.38;;;6.55;100.00
54308;BME280;40208;39.778;2.710;2024-03-02T06:10:12;100743.59;;;6.25;100.00
54308;BME280;40208;39.778;2.710;2024-03-02T06:12:56;100812.81;;;6.63;100.00
54308;BME280;40208;39.778;2.710;2024-03-02T06:15:43;100798.72;;;6.33;100.00
54308;BME280;40208;39.778;2.710;2024-03-02T06:18:28;100798.13;;;6.54;100.00
54308;BME280;40208;39.778;2.710;2024-03-02T06:21:12;100759.97;;;6.04;100.00
54308;BME280;40208;39.778;2.710;2024-03-02T06:23:57;100821.06;;;6.18;100.00
54308;BME280;40208;39.778;2.710;2024-03-02T06:26:42;100754.69;;;6.05;100.00
54308;BME280;40208;39.778;2.710;2024-03-02T06:29:27;100675.41;;;5.80;100.00
54308;BME280;40208;39.778;2.710;2024-03-02T06:32:11;100772.09;;;6.11;100.00
54308;BME280;40208;39.778;2.710;2024-03-02T06:34:56;100826.03;;;6.62;100.00
54308;BME280;40208;39.778;2.710;2024-03-02T06:37:41;100803.97;;;6.64;100.00
54308;BME280;40208;39.778;2.710;2024-03-02T06:40:26;100823.69;;;6.84;100.00
54308;BME280;40208;39.778;2.710;2024-03-02T06:43:11;100808.25;;;6.39;100.00
54308;BME280;40208;39.778;2.710;2024-03-02T06:45:56;100821.06;;;6.82;100.00
54308;BME280;40208;39.778;2.710;2024-03-02T06:48:41;100823.94;;;6.74;100.00
54308;BME280;40208;39.778;2.710;2024-03-02T06:51:26;100840.28;;;6.56;100.00
54308;BME280;40208;39.778;2.710;2024-03-02T06:54:11;100771.50;;;6.32;100.00
54308;BME280;40208;39.778;2.710;2024-03-02T06:56:56;100414.69;;;4.25;100.00
54308;BME280;40208;39.778;2.710;2024-03-02T06:59:41;100814.28;;;6.73;100.00
54308;BME280;40208;39.778;2.710;2024-03-02T07:02:26;100712.56;;;6.04;100.00
54308;BME280;40208;39.778;2.710;2024-03-02T07:05:11;100819.06;;;6.59;100.00
54308;BME280;40208;39.778;2.710;2024-03-02T07:07:56;100706.63;;;5.95;100.00
54308;BME280;40208;39.778;2.710;2024-03-02T07:10:40;100815.31;;;6.36;100.00
54308;BME280;40208;39.778;2.710;2024-03-02T07:13:25;100814.16;;;6.47;100.00
54308;BME280;40208;39.778;2.710;2024-03-02T07:16:10;100819.44;;;6.47;100.00
54308;BME280;40208;39.778;2.710;2024-03-02T07:18:55;100786.25;;;6.38;100.00
54308;BME280;40208;39.778;2.710;2024-03-02T07:21:41;100395.97;;;4.38;100.00
54308;BME280;40208;39.778;2.710;2024-03-02T07:24:26;100803.34;;;6.86;100.00
54308;BME280;40208;39.778;2.710;2024-03-02T07:27:12;100799.94;;;6.84;100.00
54308;BME280;40208;39.778;2.710;2024-03-02T07:29:57;100765.00;;;6.44;100.00
54308;BME280;40208;39.778;2.710;2024-03-02T07:32:42;100786.47;;;6.62;100.00
54308;BME280;40208;39.778;2.710;2024-03-02T07:35:30;100804.84;;;6.96;100.00
54308;BME280;40208;39.778;2.710;2024-03-02T07:38:16;100605.69;;;5.93;100.00
54308;BME280;40208;39.778;2.710;2024-03-02T07:41:01;100632.94;;;6.24;100.00
54308;BME280;40208;39.778;2.710;2024-03-02T07:43:45;100794.88;;;7.34;100.00
54308;BME280;40208;39.778;2.710;2024-03-02T07:46:30;100797.84;;;7.51;100.00
54308;BME280;40208;39.778;2.710;2024-03-02T07:49:15;100743.91;;;7.32;100.00
54308;BME280;40208;39.778;2.710;2024-03-02T07:52:00;100778.22;;;7.58;100.00
54308;BME280;40208;39.778;2.710;2024-03-02T07:54:45;100507.41;;;6.21;100.00
54308;BME280;40208;39.778;2.710;2024-03-02T07:57:30;100778.97;;;7.90;100.00
54308;BME280;40208;39.778;2.710;2024-03-02T08:00:15;100814.56;;;8.30;100.00
54308;BME280;40208;39.778;2.710;2024-03-02T08:03:01;100633.69;;;7.38;100.00
54308;BME280;40208;39.778;2.710;2024-03-02T08:05:45;100742.25;;;8.31;100.00
54308;BME280;40208;39.778;2.710;2024-03-02T08:08:30;100762.78;;;8.49;100.00
54308;BME280;40208;39.778;2.710;2024-03-02T08:11:15;100810.16;;;9.03;100.00
54308;BME280;40208;39.778;2.710;2024-03-02T08:14:00;100721.72;;;8.63;100.00
54308;BME280;40208;39.778;2.710;2024-03-02T08:16:45;100811.00;;;9.27;100.00
54308;BME280;40208;39.778;2.710;2024-03-02T08:19:30;100807.25;;;9.32;100.00
54308;BME280;40208;39.778;2.710;2024-03-02T08:22:15;100568.75;;;8.05;100.00
54308;BME280;40208;39.778;2.710;2024-03-02T08:25:00;100797.53;;;9.55;100.00
54308;BME280;40208;39.778;2.710;2024-03-02T08:27:45;100333.38;;;6.74;100.00
54308;BME280;40208;39.778;2.710;2024-03-02T08:30:30;100799.03;;;9.83;100.00
54308;BME280;40208;39.778;2.710;2024-03-02T08:33:15;100800.44;;;9.91;100.00
54308;BME280;40208;39.778;2.710;2024-03-02T08:36:00;100808.00;;;10.01;100.00
54308;BME280;40208;39.778;2.710;2024-03-02T08:38:45;100809.53;;;10.06;100.00
54308;BME280;40208;39.778;2.710;2024-03-02T08:41:30;100692.47;;;9.54;100.00
54308;BME280;40208;39.778;2.710;2024-03-02T08:44:16;100737.19;;;9.82;100.00
54308;BME280;40208;39.778;2.710;2024-03-02T08:47:01;100778.19;;;10.16;100.00
54308;BME280;40208;39.778;2.710;2024-03-02T08:49:45;100529.72;;;8.78;100.00
54308;BME280;40208;39.778;2.710;2024-03-02T08:52:30;100696.13;;;9.92;100.00
54308;BME280;40208;39.778;2.710;2024-03-02T08:55:15;100783.47;;;10.57;100.00
54308;BME280;40208;39.778;2.710;2024-03-02T08:58:00;100776.91;;;10.66;100.00
54308;BME280;40208;39.778;2.710;2024-03-02T09:00:46;100667.47;;;10.01;100.00
54308;BME280;40208;39.778;2.710;2024-03-02T09:03:31;100775.00;;;10.68;100.00
54308;BME280;40208;39.778;2.710;2024-03-02T09:06:17;100715.03;;;10.45;100.00
54308;BME280;40208;39.778;2.710;2024-03-02T09:09:04;100774.47;;;10.99;100.00
54308;BME280;40208;39.778;2.710;2024-03-02T09:11:49;100724.88;;;10.80;100.00
54308;BME280;40208;39.778;2.710;2024-03-02T09:14:35;100710.66;;;10.81;100.00
54308;BME280;40208;39.778;2.710;2024-03-02T09:17:21;100767.25;;;11.20;100.00
54308;BME280;40208;39.778;2.710;2024-03-02T09:20:06;100389.63;;;8.75;100.00
54308;BME280;40208;39.778;2.710;2024-03-02T09:22:51;100748.22;;;11.29;100.00
54308;BME280;40208;39.778;2.710;2024-03-02T09:25:36;100737.69;;;11.28;100.00
54308;BME280;40208;39.778;2.710;2024-03-02T09:28:21;100685.44;;;11.09;100.00
54308;BME280;40208;39.778;2.710;2024-03-02T09:31:06;100740.06;;;11.51;100.00
54308;BME280;40208;39.778;2.710;2024-03-02T09:33:51;100732.31;;;11.46;100.00
54308;BME280;40208;39.778;2.710;2024-03-02T09:36:36;100685.63;;;11.23;100.00
54308;BME280;40208;39.778;2.710;2024-03-02T09:39:21;100738.50;;;11.64;100.00
54308;BME280;40208;39.778;2.710;2024-03-02T09:42:06;100598.16;;;10.84;100.00
54308;BME280;40208;39.778;2.710;2024-03-02T09:44:52;100484.22;;;10.26;100.00
54308;BME280;40208;39.778;2.710;2024-03-02T09:47:37;100738.59;;;11.80;100.00
54308;BME280;40208;39.778;2.710;2024-03-02T09:50:22;100556.78;;;10.80;100.00
54308;BME280;40208;39.778;2.710;2024-03-02T09:53:07;100695.03;;;11.65;100.00
54308;BME280;40208;39.778;2.710;2024-03-02T09:55:53;100730.41;;;12.02;100.00
54308;BME280;40208;39.778;2.710;2024-03-02T09:58:39;100735.72;;;12.02;100.00
54308;BME280;40208;39.778;2.710;2024-03-02T10:01:23;100730.88;;;11.93;100.00
54308;BME280;40208;39.778;2.710;2024-03-02T10:04:09;100741.09;;;12.18;100.00
54308;BME280;40208;39.778;2.710;2024-03-02T10:07:14;100505.25;;;11.01;100.00
54308;BME280;40208;39.778;2.710;2024-03-02T10:10:12;100726.91;;;12.35;100.00
54308;BME280;40208;39.778;2.710;2024-03-02T10:13:04;100705.63;;;12.35;100.00
54308;BME280;40208;39.778;2.710;2024-03-02T10:15:50;100729.50;;;12.37;100.00
54308;BME280;40208;39.778;2.710;2024-03-02T10:18:35;100718.19;;;12.49;100.00
54308;BME280;40208;39.778;2.710;2024-03-02T10:21:20;100719.56;;;12.56;100.00
54308;BME280;40208;39.778;2.710;2024-03-02T10:24:07;100647.03;;;12.19;100.00
54308;BME280;40208;39.778;2.710;2024-03-02T10:26:52;100606.59;;;11.79;100.00
54308;BME280;40208;39.778;2.710;2024-03-02T10:29:39;100655.66;;;12.40;100.00
54308;BME280;40208;39.778;2.710;2024-03-02T10:32:24;100712.63;;;12.69;100.00
54308;BME280;40208;39.778;2.710;2024-03-02T10:35:09;100704.69;;;12.52;100.00
54308;BME280;40208;39.778;2.710;2024-03-02T10:37:54;100532.97;;;11.64;100.00
54308;BME280;40208;39.778;2.710;2024-03-02T10:40:39;100670.50;;;12.44;100.00
54308;BME280;40208;39.778;2.710;2024-03-02T10:43:24;100714.84;;;12.93;99.08
54308;BME280;40208;39.778;2.710;2024-03-02T10:46:09;100647.25;;;12.80;98.29
54308;BME280;40208;39.778;2.710;2024-03-02T10:48:56;100531.59;;;12.06;100.00
54308;BME280;40208;39.778;2.710;2024-03-02T10:51:43;100629.66;;;12.77;100.00
54308;BME280;40208;39.778;2.710;2024-03-02T10:54:28;100675.16;;;13.04;98.19
54308;BME280;40208;39.778;2.710;2024-03-02T10:57:21;100662.34;;;12.95;100.00
54308;BME280;40208;39.778;2.710;2024-03-02T11:00:11;100604.72;;;12.62;100.00
54308;BME280;40208;39.778;2.710;2024-03-02T11:03:05;100684.16;;;13.18;97.29
54308;BME280;40208;39.778;2.710;2024-03-02T11:05:51;100246.09;;;10.66;94.25
54308;BME280;40208;39.778;2.710;2024-03-02T11:08:38;100663.38;;;13.24;92.29
54308;BME280;40208;39.778;2.710;2024-03-02T11:11:30;100514.13;;;12.48;94.73
54308;BME280;40208;39.778;2.710;2024-03-02T11:14:23;100556.00;;;12.76;94.83
54308;BME280;40208;39.778;2.710;2024-03-02T11:17:09;100629.75;;;13.22;95.00
54308;BME280;40208;39.778;2.710;2024-03-02T11:19:55;100642.91;;;13.41;94.36
54308;BME280;40208;39.778;2.710;2024-03-02T11:22:40;100512.94;;;12.54;96.67
54308;BME280;40208;39.778;2.710;2024-03-02T11:25:27;100611.09;;;13.22;94.42
54308;BME280;40208;39.778;2.710;2024-03-02T11:28:12;100655.09;;;13.59;96.30
54308;BME280;40208;39.778;2.710;2024-03-02T11:30:57;100433.97;;;12.38;98.40
54308;BME280;40208;39.778;2.710;2024-03-02T11:33:41;100659.63;;;13.73;99.45
54308;BME280;40208;39.778;2.710;2024-03-02T11:36:27;100551.59;;;13.21;100.00
54308;BME280;40208;39.778;2.710;2024-03-02T11:39:12;100460.38;;;12.87;100.00
54308;BME280;40208;39.778;2.710;2024-03-02T11:41:57;100614.97;;;13.91;99.38
54308;BME280;40208;39.778;2.710;2024-03-02T11:44:45;100452.69;;;12.97;98.46
54308;BME280;40208;39.778;2.710;2024-03-02T11:47:31;100598.75;;;14.08;98.79
54308;BME280;40208;39.778;2.710;2024-03-02T11:50:50;100429.84;;;13.07;99.34
54308;BME280;40208;39.778;2.710;2024-03-02T11:53:33;100548.00;;;13.81;98.11
54308;BME280;40208;39.778;2.710;2024-03-02T11:56:20;100601.50;;;13.92;96.46
54308;BME280;40208;39.778;2.710;2024-03-02T11:59:06;100540.84;;;13.82;100.00
54308;BME280;40208;39.778;2.710;2024-03-02T12:01:50;100388.66;;;12.99;100.00
54308;BME280;40208;39.778;2.710;2024-03-02T12:04:36;100423.97;;;13.16;100.00
54308;BME280;40208;39.778;2.710;2024-03-02T12:07:23;100521.13;;;13.70;100.00
54308;BME280;40208;39.778;2.710;2024-03-02T12:10:08;100555.75;;;14.13;98.62
54308;BME280;40208;39.778;2.710;2024-03-02T12:12:57;100456.09;;;13.58;96.66
54308;BME280;40208;39.778;2.710;2024-03-02T12:15:42;100582.91;;;14.34;95.53
54308;BME280;40208;39.778;2.710;2024-03-02T12:18:27;100548.78;;;14.25;96.53
54308;BME280;40208;39.778;2.710;2024-03-02T12:21:12;100519.84;;;14.04;99.34
54308;BME280;40208;39.778;2.710;2024-03-02T12:23:57;100565.44;;;14.28;98.66
54308;BME280;40208;39.778;2.710;2024-03-02T12:26:42;100460.00;;;13.67;99.58
54308;BME280;40208;39.778;2.710;2024-03-02T12:29:27;100543.19;;;14.15;100.00
54308;BME280;40208;39.778;2.710;2024-03-02T12:32:12;100559.41;;;14.12;100.00
54308;BME280;40208;39.778;2.710;2024-03-02T12:34:57;100453.97;;;13.63;100.00
54308;BME280;40208;39.778;2.710;2024-03-02T12:37:43;100534.88;;;14.19;100.00
54308;BME280;40208;39.778;2.710;2024-03-02T12:40:30;100519.50;;;14.23;100.00
54308;BME280;40208;39.778;2.710;2024-03-02T12:43:16;100384.78;;;13.33;100.00
54308;BME280;40208;39.778;2.710;2024-03-02T12:46:01;100514.38;;;14.20;100.00
54308;BME280;40208;39.778;2.710;2024-03-02T12:48:46;100487.75;;;13.91;100.00
54308;BME280;40208;39.778;2.710;2024-03-02T12:51:31;100510.56;;;14.24;98.45
54308;BME280;40208;39.778;2.710;2024-03-02T12:54:16;100396.28;;;13.62;98.05
54308;BME280;40208;39.778;2.710;2024-03-02T12:57:02;100435.53;;;13.87;97.54
54308;BME280;40208;39.778;2.710;2024-03-02T12:59:47;100468.25;;;14.18;98.19
54308;BME280;40208;39.778;2.710;2024-03-02T13:02:32;100486.78;;;14.34;97.66
54308;BME280;40208;39.778;2.710;2024-03-02T13:05:17;100331.59;;;13.58;95.26
54308;BME280;40208;39.778;2.710;2024-03-02T13:08:02;100455.06;;;14.29;96.28
54308;BME280;40208;39.778;2.710;2024-03-02T13:10:48;100458.28;;;14.34;94.47
54308;BME280;40208;39.778;2.710;2024-03-02T13:13:33;100469.09;;;14.46;93.87
54308;BME280;40208;39.778;2.710;2024-03-02T13:16:19;100454.78;;;14.47;93.84
54308;BME280;40208;39.778;2.710;2024-03-02T13:19:07;100450.38;;;14.60;91.81
54308;BME280;40208;39.778;2.710;2024-03-02T13:21:52;100380.59;;;14.12;94.01
54308;BME280;40208;39.778;2.710;2024-03-02T13:24:37;100394.38;;;14.18;94.14
54308;BME280;40208;39.778;2.710;2024-03-02T13:27:22;100429.50;;;14.52;91.56
54308;BME280;40208;39.778;2.710;2024-03-02T13:30:08;100434.56;;;14.57;90.35
54308;BME280;40208;39.778;2.710;2024-03-02T13:32:53;100433.44;;;14.47;89.44
54308;BME280;40208;39.778;2.710;2024-03-02T13:35:38;100434.75;;;14.54;90.66
54308;BME280;40208;39.778;2.710;2024-03-02T13:38:23;100429.69;;;14.49;91.39
54308;BME280;40208;39.778;2.710;2024-03-02T13:41:07;100362.94;;;14.09;90.14
54308;BME280;40208;39.778;2.710;2024-03-02T13:43:53;100406.91;;;14.58;88.21
54308;BME280;40208;39.778;2.710;2024-03-02T13:46:37;100425.00;;;14.53;89.78
54308;BME280;40208;39.778;2.710;2024-03-02T13:49:22;100412.28;;;14.43;91.01
54308;BME280;40208;39.778;2.710;2024-03-02T13:52:07;100432.28;;;14.51;92.23
54308;BME280;40208;39.778;2.710;2024-03-02T13:54:55;100353.47;;;14.18;92.16
54308;BME280;40208;39.778;2.710;2024-03-02T13:57:40;100326.03;;;14.03;92.11
54308;BME280;40208;39.778;2.710;2024-03-02T14:00:25;100390.16;;;14.41;92.83
54308;BME280;40208;39.778;2.710;2024-03-02T14:03:10;100302.00;;;13.76;94.55
54308;BME280;40208;39.778;2.710;2024-03-02T14:05:55;100393.81;;;14.40;94.96
54308;BME280;40208;39.778;2.710;2024-03-02T14:08:40;100390.78;;;14.32;94.10
54308;BME280;40208;39.778;2.710;2024-03-02T14:11:29;100388.25;;;14.43;95.04
54308;BME280;40208;39.778;2.710;2024-03-02T14:14:13;100397.41;;;14.39;95.50
54308;BME280;40208;39.778;2.710;2024-03-02T14:17:00;100405.13;;;14.44;92.58
54308;BME280;40208;39.778;2.710;2024-03-02T14:19:51;100394.34;;;14.46;93.43
54308;BME280;40208;39.778;2.710;2024-03-02T14:22:38;100328.16;;;14.11;94.59
54308;BME280;40208;39.778;2.710;2024-03-02T14:25:22;100398.19;;;14.41;96.76
54308;BME280;40208;39.778;2.710;2024-03-02T14:28:07;100383.66;;;14.46;95.27